Latest Weather Observations for Wattamolla

IDN60801

Issued at 12:42 am EST Friday 19 April 2019 (issued every 10 minutes, with the page automatically refreshed every 10 minutes)

About weather observations | Map of weather stations | Latest weather observations for NSW | Other Formats
Station Details ID: 066208 Name: WATTAMOLLA AWS Lat: -34.14 Lon: 151.12 Height: 44.0 m
Data from the previous 72 hours. | See also: Recent months at Wattamolla
Date/Time
EST
Temp
°C
App
Temp
°C
Dew
Point
°C
Rel
Hum
%
Delta-T
°C
Wind Press
QNH
hPa
Press
MSL
hPa
Rain since
9am
mm
Dir  Spd
km/h
Gust
km/h
Spd
kts
Gust
kts
19/12:30am - - - - - S 20 32 11 17 - - -
19/12:00am - - - - - SSE 32 39 17 21 - - -
 
Date/Time
EST
Temp
°C
App
Temp
°C
Dew
Point
°C
Rel
Hum
%
Delta-T
°C
Wind Press
QNH
hPa
Press
MSL
hPa
Rain since
9am
mm
Dir  Spd
km/h
Gust
km/h
Spd
kts
Gust
kts
18/11:30pm - - - - - S 35 41 19 22 - - -
18/11:00pm - - - - - S 37 43 20 23 - - -
18/10:30pm - - - - - SSE 37 44 20 24 - - -
18/10:00pm - - - - - SSE 37 48 20 26 - - -
18/09:30pm - - - - - SSE 37 44 20 24 - - -
18/09:00pm - - - - - SSE 39 46 21 25 - - -
18/08:30pm - - - - - SSE 39 48 21 26 - - -
18/08:00pm - - - - - S 41 52 22 28 - - -
18/07:30pm - - - - - SSE 39 50 21 27 - - -
18/07:00pm - - - - - SSE 37 48 20 26 - - -
18/06:30pm - - - - - SSE 32 39 17 21 - - -
18/06:18pm - - - - - S 24 41 13 22 - - -
18/06:00pm - - - - - N 6 13 3 7 - - -
18/05:30pm - - - - - NNE 9 15 5 8 - - -
18/05:00pm - - - - - NNE 11 19 6 10 - - -
18/04:30pm - - - - - NE 11 19 6 10 - - -
18/04:00pm - - - - - NE 17 26 9 14 - - -
18/03:30pm - - - - - NE 17 24 9 13 - - -
18/03:00pm - - - - - NE 17 24 9 13 - - -
18/02:30pm - - - - - NE 20 30 11 16 - - -
18/02:00pm - - - - - NE 19 28 10 15 - - -
18/01:30pm - - - - - NE 20 28 11 15 - - -
18/01:00pm - - - - - N 13 19 7 10 - - -
18/12:30pm - - - - - NNW 11 17 6 9 - - -
18/12:00pm - - - - - NNW 13 19 7 10 - - -
18/11:30am - - - - - NW 17 26 9 14 - - -
18/11:00am - - - - - NW 17 28 9 15 - - -
18/10:30am - - - - - NNW 20 30 11 16 - - -
18/10:00am - - - - - NNW 17 28 9 15 - - -
18/09:30am - - - - - NW 17 26 9 14 - - -
18/09:00am - - - - - NW 15 22 8 12 - - -
18/08:30am - - - - - NNW 15 20 8 11 - - -
18/08:00am - - - - - NNW 11 19 6 10 - - -
18/07:30am - - - - - NNW 11 17 6 9 - - -
18/07:00am - - - - - NNW 13 17 7 9 - - -
18/06:30am - - - - - NW 13 17 7 9 - - -
18/06:00am - - - - - NW 17 20 9 11 - - -
18/05:30am - - - - - NW 17 22 9 12 - - -
18/05:00am - - - - - WNW 20 22 11 12 - - -
18/04:30am - - - - - WNW 19 22 10 12 - - -
18/04:00am - - - - - WNW 17 20 9 11 - - -
18/03:30am - - - - - WNW 17 20 9 11 - - -
18/03:00am - - - - - NNW 9 13 5 7 - - -
18/02:30am - - - - - WNW 17 20 9 11 - - -
18/02:00am - - - - - WNW 17 20 9 11 - - -
18/01:30am - - - - - NW 11 17 6 9 - - -
18/01:00am - - - - - NNW 11 13 6 7 - - -
18/12:30am - - - - - NW 11 15 6 8 - - -
18/12:00am - - - - - NW 13 17 7 9 - - -
 
Date/Time
EST
Temp
°C
App
Temp
°C
Dew
Point
°C
Rel
Hum
%
Delta-T
°C
Wind Press
QNH
hPa
Press
MSL
hPa
Rain since
9am
mm
Dir  Spd
km/h
Gust
km/h
Spd
kts
Gust
kts
17/11:30pm - - - - - NNW 15 17 8 9 - - -
17/11:00pm - - - - - NW 15 19 8 10 - - -
17/10:30pm - - - - - NW 15 17 8 9 - - -
17/10:00pm - - - - - NW 17 19 9 10 - - -
17/09:30pm - - - - - NW 15 15 8 8 - - -
17/09:00pm - - - - - NW 13 15 7 8 - - -
17/08:30pm - - - - - NNW 13 15 7 8 - - -
17/08:00pm - - - - - NNW 13 15 7 8 - - -
17/07:30pm - - - - - N 13 15 7 8 - - -
17/07:00pm - - - - - NW 11 13 6 7 - - -
17/06:30pm - - - - - NW 11 13 6 7 - - -
17/06:00pm - - - - - NNW 9 11 5 6 - - -
17/05:30pm - - - - - NE 11 15 6 8 - - -
17/05:00pm - - - - - NE 13 17 7 9 - - -
17/04:30pm - - - - - NE 13 20 7 11 - - -
17/04:00pm - - - - - NE 13 19 7 10 - - -
17/03:30pm - - - - - NE 17 20 9 11 - - -
17/03:00pm - - - - - ENE 15 20 8 11 - - -
17/02:30pm - - - - - E 11 15 6 8 - - -
17/02:00pm - - - - - SE 11 15 6 8 - - -
17/01:30pm - - - - - SSE 11 13 6 7 - - -
17/01:00pm - - - - - SSE 11 13 6 7 - - -
17/12:30pm - - - - - S 11 13 6 7 - - -
17/12:00pm - - - - - S 13 17 7 9 - - -
17/11:30am - - - - - S 15 15 8 8 - - -
17/11:00am - - - - - S 13 15 7 8 - - -
17/10:30am - - - - - S 15 17 8 9 - - -
17/10:00am - - - - - S 13 15 7 8 - - -
17/09:30am - - - - - SSE 11 15 6 8 - - -
17/09:00am - - - - - S 9 15 5 8 - - -
17/08:30am - - - - - S 9 15 5 8 - - -
17/08:00am - - - - - S 9 13 5 7 - - -
17/07:30am - - - - - SSW 7 9 4 5 - - -
17/07:00am - - - - - SSW 11 11 6 6 - - -
17/06:30am - - - - - SW 13 13 7 7 - - -
17/06:00am - - - - - SW 9 11 5 6 - - -
17/05:30am - - - - - SW 9 11 5 6 - - -
17/05:00am - - - - - W 9 11 5 6 - - -
17/04:30am - - - - - WNW 11 11 6 6 - - -
17/04:00am - - - - - WNW 9 11 5 6 - - -
17/03:30am - - - - - WNW 9 11 5 6 - - -
17/03:00am - - - - - WNW 11 11 6 6 - - -
17/02:30am - - - - - NW 13 17 7 9 - - -
17/02:00am - - - - - NW 13 15 7 8 - - -
17/01:30am - - - - - NW 15 17 8 9 - - -
17/01:00am - - - - - NW 13 15 7 8 - - -
17/12:30am - - - - - NW 13 13 7 7 - - -
17/12:00am - - - - - WNW 15 17 8 9 - - -
 
Date/Time
EST
Temp
°C
App
Temp
°C
Dew
Point
°C
Rel
Hum
%
Delta-T
°C
Wind Press
QNH
hPa
Press
MSL
hPa
Rain since
9am
mm
Dir  Spd
km/h
Gust
km/h
Spd
kts
Gust
kts
16/11:30pm - - - - - WNW 11 13 6 7 - - -
16/11:00pm - - - - - NW 11 13 6 7 - - -
16/10:30pm - - - - - NW 11 13 6 7 - - -
16/10:00pm - - - - - NW 11 11 6 6 - - -
16/09:30pm - - - - - NW 9 11 5 6 - - -
16/09:00pm - - - - - N 6 9 3 5 - - -
16/08:30pm - - - - - NNW 7 7 4 4 - - -
16/08:00pm - - - - - NNW 7 11 4 6 - - -
16/07:30pm - - - - - NE 2 7 1 4 - - -
16/07:00pm - - - - - ENE 9 13 5 7 - - -
16/06:30pm - - - - - E 9 11 5 6 - - -
16/06:00pm - - - - - ESE 9 13 5 7 - - -
16/05:30pm - - - - - SE 9 13 5 7 - - -
16/05:00pm - - - - - SE 11 17 6 9 - - -
16/04:30pm - - - - - SSE 15 17 8 9 - - -
16/04:00pm - - - - - SSE 15 20 8 11 - - -
16/03:30pm - - - - - SE 15 19 8 10 - - -
16/03:00pm - - - - - SSE 15 19 8 10 - - -
16/02:30pm - - - - - SSE 17 19 9 10 - - -
16/02:00pm - - - - - SSE 17 19 9 10 - - -
16/01:30pm - - - - - S 20 24 11 13 - - -
16/01:00pm - - - - - S 22 26 12 14 - - -
16/12:30pm - - - - - S 20 26 11 14 - - -
16/12:00pm - - - - - S 19 24 10 13 - - -
16/11:30am - - - - - S 19 26 10 14 - - -
16/11:00am - - - - - SSE 19 28 10 15 - - -
16/10:30am - - - - - SSE 20 26 11 14 - - -
16/10:00am - - - - - S 20 26 11 14 - - -
16/09:30am - - - - - S 24 30 13 16 - - -
16/09:00am - - - - - S 26 28 14 15 - - -
16/08:30am - - - - - S 26 30 14 16 - - -
16/08:00am - - - - - S 24 32 13 17 - - -
16/07:30am - - - - - S 24 30 13 16 - - -
16/07:00am - - - - - S 13 24 7 13 - - -
16/06:30am - - - - - S 22 28 12 15 - - -
16/06:00am - - - - - SSW 13 19 7 10 - - -
16/05:30am - - - - - S 13 22 7 12 - - -
16/05:00am - - - - - SSW 13 19 7 10 - - -
16/04:30am - - - - - S 17 26 9 14 - - -
16/04:00am - - - - - SW 15 19 8 10 - - -
16/03:30am - - - - - SW 11 15 6 8 - - -
16/03:00am - - - - - SW 15 19 8 10 - - -
16/02:30am - - - - - SW 13 17 7 9 - - -
16/02:00am - - - - - S 24 30 13 16 - - -
16/01:30am - - - - - S 24 32 13 17 - - -
16/01:00am - - - - - S 22 30 12 16 - - -

Other formats

Comma delimited format used in spreadsheet applications
http://www.bom.gov.au/fwo/IDN60801/IDN60801.95752.axf

JavaScript Object Notation format (JSON) in row-major order
http://www.bom.gov.au/fwo/IDN60801/IDN60801.95752.json

Data quality

Most of these data are generated automatically and are frequently updated. Quality checks on data are not normally performed. It is possible for incorrect values to appear. Refer to information at About Latest Weather Observations and please check the disclaimer before using these data.